Time;durP1;ratioP1;P1;durP2;ratioP2;P2;SDS_P1;SDS_P2;PMS_P1;PMS_P2;Temp;Humidity;BMP_temperature;BMP_pressure;BME280_temperature;BME280_humidity;BME280_pressure;Samples;Min_cycle;Max_cycle;Signal;HPM_P1;HPM_P2
2023/02/06 00:02:25;;;;;;;29.92;23.55;;;-2.70;1.00;;;;;;5010725;28;21016;-80
2023/02/06 00:04:58;;;;;;;30.95;22.92;;;-2.80;1.00;;;;;;5021286;28;21024;-83
2023/02/06 00:07:25;;;;;;;31.77;20.60;;;-2.80;1.00;;;;;;5010447;28;20257;-81
2023/02/06 00:09:54;;;;;;;27.48;21.00;;;-2.80;1.00;;;;;;5031611;28;20725;-81
2023/02/06 00:12:21;;;;;;;29.23;21.67;;;-2.80;1.00;;;;;;5017022;28;20230;-81
2023/02/06 00:14:48;;;;;;;30.73;20.58;;;-2.80;1.00;;;;;;5021580;28;20247;-81
2023/02/06 00:17:17;;;;;;;27.13;22.83;;;-2.70;1.00;;;;;;5033234;28;20263;-81
2023/02/06 00:19:45;;;;;;;28.50;20.38;;;-2.70;1.00;;;;;;5023114;28;20299;-81
2023/02/06 00:22:15;;;;;;;28.20;21.50;;;-2.80;1.00;;;;;;5037203;28;20226;-84
2023/02/06 00:24:55;;;;;;;27.55;18.50;;;-2.80;1.00;;;;;;5039546;28;20244;-82
2023/02/06 00:27:25;;;;;;;27.15;17.45;;;-2.90;1.00;;;;;;5042167;28;20241;-81
2023/02/06 00:30:07;;;;;;;25.30;17.70;;;-2.80;1.00;;;;;;5041890;28;20241;-80
2023/02/06 00:32:38;;;;;;;26.65;18.95;;;-2.80;1.00;;;;;;5035269;28;20249;-80
2023/02/06 00:35:06;;;;;;;24.65;16.70;;;-2.80;1.00;;;;;;5036575;28;20222;-81
2023/02/06 00:37:35;;;;;;;20.20;13.90;;;-2.70;1.00;;;;;;5032602;28;20214;-81
2023/02/06 00:40:06;;;;;;;23.73;15.77;;;-2.70;1.00;;;;;;5034708;28;20234;-82
2023/02/06 00:42:35;;;;;;;19.75;14.23;;;-2.60;1.00;;;;;;5046147;28;20237;-80
2023/02/06 00:45:06;;;;;;;19.20;13.68;;;-2.60;1.00;;;;;;5036492;28;20252;-82
2023/02/06 00:47:45;;;;;;;23.25;14.50;;;-2.60;1.00;;;;;;5045284;28;20218;-83
2023/02/06 00:50:14;;;;;;;20.40;14.82;;;-2.50;1.00;;;;;;5040859;28;20241;-80
2023/02/06 00:52:41;;;;;;;20.33;15.90;;;-2.50;1.00;;;;;;5009371;28;20226;-81
2023/02/06 00:55:08;;;;;;;21.60;14.55;;;-2.40;1.00;;;;;;5038506;28;20217;-82
2023/02/06 00:57:36;;;;;;;20.25;14.32;;;-2.40;1.00;;;;;;5020730;28;20238;-80
2023/02/06 01:00:04;;;;;;;17.30;12.73;;;-2.40;1.00;;;;;;5037004;28;20268;-81
2023/02/06 01:02:33;;;;;;;20.75;13.23;;;-2.40;1.00;;;;;;5034253;28;20229;-82
2023/02/06 01:05:03;;;;;;;22.35;14.02;;;-2.30;1.00;;;;;;5017436;28;20239;-81
2023/02/06 01:07:30;;;;;;;19.63;13.82;;;-2.30;1.00;;;;;;5031579;28;20357;-82
2023/02/06 01:09:57;;;;;;;19.60;14.82;;;-2.30;1.00;;;;;;5029658;28;20238;-81
2023/02/06 01:12:24;;;;;;;21.50;14.07;;;-2.40;1.00;;;;;;5036432;28;20257;-80
2023/02/06 01:14:54;;;;;;;20.70;12.60;;;-2.40;1.00;;;;;;5034321;28;20242;-83
2023/02/06 01:17:21;;;;;;;18.25;11.68;;;-2.40;1.00;;;;;;5026588;28;20284;-84
2023/02/06 01:19:49;;;;;;;19.42;13.20;;;-2.50;1.00;;;;;;5038299;28;20261;-80
2023/02/06 01:22:18;;;;;;;20.08;13.50;;;-2.50;1.00;;;;;;5033518;28;20248;-80
2023/02/06 01:24:45;;;;;;;19.92;12.50;;;-2.40;1.00;;;;;;5036243;28;20320;-80
2023/02/06 01:27:12;;;;;;;20.52;12.73;;;-2.40;1.00;;;;;;5034824;28;20241;-79
2023/02/06 01:29:38;;;;;;;17.58;12.35;;;-2.40;1.00;;;;;;5028947;28;20324;-81
2023/02/06 01:32:05;;;;;;;18.80;11.73;;;-2.40;1.00;;;;;;5027838;28;20881;-80
2023/02/06 01:34:32;;;;;;;17.08;12.02;;;-2.40;1.00;;;;;;5041449;28;20287;-80
2023/02/06 01:37:02;;;;;;;18.52;13.00;;;-2.30;1.00;;;;;;5031912;28;20233;-81
2023/02/06 01:39:30;;;;;;;18.73;12.65;;;-2.40;1.00;;;;;;5037598;28;20240;-80
2023/02/06 01:41:58;;;;;;;17.45;11.70;;;-2.40;1.00;;;;;;5036706;28;20278;-80
2023/02/06 01:44:26;;;;;;;18.00;12.73;;;-2.40;1.00;;;;;;5034408;28;20965;-80
2023/02/06 01:46:56;;;;;;;19.23;11.93;;;-2.40;1.00;;;;;;5033193;28;20235;-83
2023/02/06 01:49:27;;;;;;;20.95;12.57;;;-2.50;1.00;;;;;;5038188;28;20242;-81
2023/02/06 01:51:57;;;;;;;18.30;12.13;;;-2.60;1.00;;;;;;5032706;28;20760;-82
2023/02/06 01:54:27;;;;;;;20.13;12.80;;;-2.70;1.00;;;;;;5028543;28;20238;-81
2023/02/06 01:57:04;;;;;;;20.35;12.15;;;-2.70;1.00;;;;;;5036858;28;20344;-81
2023/02/06 01:59:35;;;;;;;21.08;12.45;;;-2.80;1.00;;;;;;5033204;28;21113;-82
2023/02/06 02:02:07;;;;;;;23.60;13.65;;;-2.80;1.00;;;;;;5039863;28;20225;-81
2023/02/06 02:04:35;;;;;;;21.00;13.45;;;-2.90;1.00;;;;;;5015836;28;20262;-80
2023/02/06 02:07:13;;;;;;;16.92;11.75;;;-3.00;1.00;;;;;;5031333;28;20423;-80
2023/02/06 02:09:47;;;;;;;21.73;13.20;;;-3.00;1.00;;;;;;5017607;28;21062;-80
2023/02/06 02:12:16;;;;;;;18.60;11.20;;;-3.00;1.00;;;;;;5017699;28;21176;-81
2023/02/06 02:14:48;;;;;;;17.58;11.27;;;-2.90;1.00;;;;;;5022511;28;20238;-81
2023/02/06 02:17:30;;;;;;;18.27;12.70;;;-2.90;1.00;;;;;;5036594;28;20233;-79
2023/02/06 02:20:34;;;;;;;18.70;12.45;;;-3.00;1.00;;;;;;5030267;28;20245;-81
2023/02/06 02:23:15;;;;;;;17.70;11.50;;;-3.00;1.00;;;;;;5033960;28;20234;-81
2023/02/06 02:26:24;;;;;;;18.30;12.32;;;-3.10;1.00;;;;;;5012501;28;20233;-80
2023/02/06 02:29:33;;;;;;;19.83;11.75;;;-3.10;1.00;;;;;;5030000;28;20238;-81
2023/02/06 02:32:36;;;;;;;18.05;11.77;;;-3.20;1.00;;;;;;5032418;28;20246;-82
2023/02/06 02:35:18;;;;;;;16.40;11.77;;;-3.20;1.00;;;;;;5033888;28;20324;-81
2023/02/06 02:38:02;;;;;;;16.33;11.13;;;-3.20;1.00;;;;;;5030024;28;20273;-82
2023/02/06 02:40:38;;;;;;;18.92;11.60;;;-3.10;1.00;;;;;;5037075;28;20237;-82
2023/02/06 02:43:15;;;;;;;17.13;10.90;;;-3.00;1.00;;;;;;5026612;28;20272;-81
2023/02/06 02:46:05;;;;;;;19.17;11.85;;;-2.90;1.00;;;;;;5029002;28;20320;-81
2023/02/06 02:48:48;;;;;;;18.90;11.50;;;-2.80;1.00;;;;;;5016438;28;20222;-81
2023/02/06 02:51:29;;;;;;;15.77;10.98;;;-2.70;1.00;;;;;;5023067;28;20240;-82
2023/02/06 02:53:57;;;;;;;17.73;11.20;;;-2.60;1.00;;;;;;5030390;28;20257;-80
2023/02/06 02:56:27;;;;;;;16.90;11.15;;;-2.50;1.00;;;;;;5018440;28;21100;-81
2023/02/06 02:59:08;;;;;;;18.85;12.32;;;-2.50;1.00;;;;;;5021274;28;21063;-80
2023/02/06 03:01:54;;;;;;;15.88;10.95;;;-2.40;1.00;;;;;;5011437;28;21029;-81
2023/02/06 03:04:34;;;;;;;22.10;12.00;;;-2.30;1.00;;;;;;5031218;28;20971;-80
2023/02/06 03:07:15;;;;;;;17.77;13.27;;;-2.20;1.00;;;;;;5023763;28;20234;-80
2023/02/06 03:09:58;;;;;;;15.90;11.40;;;-2.20;1.00;;;;;;5021717;28;20239;-80
2023/02/06 03:12:34;;;;;;;16.02;11.98;;;-2.20;1.00;;;;;;5029981;28;21137;-82
2023/02/06 03:15:15;;;;;;;18.13;12.63;;;-2.10;1.00;;;;;;5027786;28;20247;-78
2023/02/06 03:17:55;;;;;;;18.05;12.18;;;-2.10;1.00;;;;;;5005316;28;20374;-80
2023/02/06 03:20:36;;;;;;;18.95;11.77;;;-2.10;1.00;;;;;;5019974;28;20233;-79
2023/02/06 03:23:08;;;;;;;19.83;13.30;;;-2.00;1.00;;;;;;5010225;28;20245;-79
2023/02/06 03:25:38;;;;;;;17.60;11.70;;;-2.00;1.00;;;;;;5040475;28;20273;-80
2023/02/06 03:28:14;;;;;;;16.65;12.00;;;-1.90;1.00;;;;;;5032133;28;20257;-79
2023/02/06 03:30:42;;;;;;;17.10;12.07;;;-1.90;1.00;;;;;;5038187;28;20242;-81
2023/02/06 03:33:15;;;;;;;20.27;13.00;;;-1.80;1.00;;;;;;5025132;28;20990;-80
2023/02/06 03:35:46;;;;;;;18.15;12.13;;;-1.70;1.00;;;;;;5032428;28;20240;-82
2023/02/06 03:38:16;;;;;;;24.17;14.45;;;-1.70;1.00;;;;;;5043511;28;21157;-79
2023/02/06 03:40:47;;;;;;;16.05;11.60;;;-1.60;1.00;;;;;;5030684;28;20483;-83
2023/02/06 03:43:17;;;;;;;18.65;12.10;;;-1.60;1.00;;;;;;5036070;28;20256;-81
2023/02/06 03:45:48;;;;;;;18.15;12.57;;;-1.70;1.00;;;;;;5030021;28;21013;-81
2023/02/06 03:48:20;;;;;;;20.15;12.32;;;-1.60;1.00;;;;;;5030706;28;20242;-81
2023/02/06 03:50:53;;;;;;;16.95;11.63;;;-1.60;1.00;;;;;;5033401;28;20320;-81
2023/02/06 03:53:27;;;;;;;17.33;11.80;;;-1.60;1.00;;;;;;5027219;28;20237;-81
2023/02/06 03:56:04;;;;;;;16.08;11.10;;;-1.50;1.00;;;;;;5033689;28;20307;-81
2023/02/06 03:58:37;;;;;;;17.30;12.27;;;-1.50;1.00;;;;;;5024382;28;20776;-80
2023/02/06 04:01:07;;;;;;;17.27;11.55;;;-1.40;1.00;;;;;;5024742;28;20742;-81
2023/02/06 04:03:37;;;;;;;17.55;11.80;;;-1.30;1.00;;;;;;5000136;28;20244;-83
2023/02/06 04:06:07;;;;;;;16.58;10.85;;;-1.30;1.00;;;;;;5041785;28;20285;-80
2023/02/06 04:08:38;;;;;;;16.23;11.35;;;-1.30;1.00;;;;;;5020660;28;20241;-81
2023/02/06 04:11:07;;;;;;;17.15;12.15;;;-1.30;1.00;;;;;;5049236;28;20321;-81
2023/02/06 04:13:37;;;;;;;17.40;11.05;;;-1.20;1.00;;;;;;5026380;28;20233;-80
2023/02/06 04:16:16;;;;;;;16.35;10.88;;;-1.40;1.00;;;;;;5037813;28;20241;-82
2023/02/06 04:18:46;;;;;;;19.02;12.15;;;-1.50;1.00;;;;;;5023470;28;20236;-82
2023/02/06 04:21:27;;;;;;;16.13;11.27;;;-1.50;1.00;;;;;;5000013;28;20223;-83
2023/02/06 04:23:57;;;;;;;16.52;11.02;;;-1.40;1.00;;;;;;5018017;28;20239;-81
2023/02/06 04:26:36;;;;;;;16.48;10.55;;;-1.40;1.00;;;;;;5041675;28;20254;-81
2023/02/06 04:29:06;;;;;;;20.65;12.55;;;-1.50;1.00;;;;;;5038596;28;21753;-81
2023/02/06 04:31:36;;;;;;;15.13;11.20;;;-1.40;1.00;;;;;;5036013;28;20226;-80
2023/02/06 04:34:19;;;;;;;17.58;11.20;;;-1.40;1.00;;;;;;5032128;28;20234;-82
2023/02/06 04:36:47;;;;;;;17.52;10.18;;;-1.20;1.00;;;;;;5025963;28;20227;-81
2023/02/06 04:39:27;;;;;;;16.02;9.77;;;-1.20;1.00;;;;;;5029131;28;20238;-83
2023/02/06 04:41:56;;;;;;;14.73;9.65;;;-1.10;1.00;;;;;;5040015;28;20212;-81
2023/02/06 04:44:26;;;;;;;17.00;11.15;;;-1.20;1.00;;;;;;5043187;28;20284;-81
2023/02/06 04:46:55;;;;;;;16.80;10.95;;;-1.10;1.00;;;;;;5026848;28;20238;-80
2023/02/06 04:49:27;;;;;;;15.05;9.82;;;-1.10;1.00;;;;;;5033917;28;20238;-82
2023/02/06 04:51:58;;;;;;;19.35;10.25;;;-1.10;1.00;;;;;;5046378;28;20226;-81
2023/02/06 04:54:27;;;;;;;16.13;9.38;;;-1.10;1.00;;;;;;5028426;28;20214;-82
2023/02/06 04:56:55;;;;;;;15.68;9.95;;;-1.10;1.00;;;;;;5038463;28;20234;-81
2023/02/06 04:59:38;;;;;;;14.55;10.25;;;-1.10;1.00;;;;;;5043368;28;20232;-81
2023/02/06 05:02:06;;;;;;;16.40;10.82;;;-1.10;1.00;;;;;;5033552;28;20249;-80
2023/02/06 05:04:37;;;;;;;16.50;9.52;;;-1.00;1.00;;;;;;5041027;28;20229;-81
2023/02/06 05:07:06;;;;;;;16.55;10.70;;;-1.10;1.00;;;;;;5021622;28;20242;-81
2023/02/06 05:09:37;;;;;;;15.15;9.65;;;-1.10;1.00;;;;;;5041064;28;20234;-80
2023/02/06 05:12:06;;;;;;;18.05;10.05;;;-1.10;1.00;;;;;;5033967;28;20281;-81
2023/02/06 05:14:37;;;;;;;15.45;10.00;;;-1.00;1.00;;;;;;5039733;28;20247;-80
2023/02/06 05:17:07;;;;;;;17.60;12.15;;;-0.90;1.00;;;;;;5039684;28;20222;-79
2023/02/06 05:19:37;;;;;;;15.10;10.05;;;-0.90;1.00;;;;;;5034079;28;20237;-81
2023/02/06 05:22:07;;;;;;;16.10;9.85;;;-0.80;1.00;;;;;;5036494;28;20245;-82
2023/02/06 05:24:38;;;;;;;16.27;9.20;;;-0.80;1.00;;;;;;5043296;28;20240;-81
2023/02/06 05:27:08;;;;;;;13.15;8.30;;;-0.70;1.00;;;;;;5041054;28;20251;-81
2023/02/06 05:29:46;;;;;;;15.93;8.20;;;-0.70;1.00;;;;;;5040878;28;20213;-80
2023/02/06 05:35:47;;;;;;;11.70;7.40;;;-0.80;1.00;;;;;;5008579;28;20241;-80
2023/02/06 05:38:16;;;;;;;13.25;9.02;;;-0.70;1.00;;;;;;5016964;28;20227;-82
2023/02/06 05:41:15;;;;;;;17.95;10.00;;;-0.70;1.00;;;;;;5007587;28;20231;-80
2023/02/06 05:43:46;;;;;;;17.00;11.60;;;-0.70;1.00;;;;;;5018698;28;20250;-76
2023/02/06 05:46:24;;;;;;;14.38;10.20;;;-0.70;1.00;;;;;;5026389;28;20239;-77
2023/02/06 05:49:06;;;;;;;17.85;12.25;;;-0.70;1.00;;;;;;5022524;28;20239;-79
2023/02/06 05:51:36;;;;;;;13.38;9.25;;;-0.80;1.00;;;;;;5018174;28;20270;-78
2023/02/06 05:59:39;;;;;;;13.82;8.63;;;-0.70;1.00;;;;;;5051589;28;20230;-81
2023/02/06 06:04:57;;;;;;;15.63;10.25;;;-0.60;1.00;;;;;;5394880;22;20245;-82
2023/02/06 06:07:37;;;;;;;14.55;9.07;;;-0.70;1.00;;;;;;5112093;27;20235;-82
2023/02/06 06:10:16;;;;;;;14.10;8.65;;;-0.80;1.00;;;;;;5094267;27;20307;-79
2023/02/06 06:12:46;;;;;;;16.70;9.98;;;-0.80;1.00;;;;;;5107877;27;20226;-80
2023/02/06 06:15:19;;;;;;;15.75;10.30;;;-0.80;1.00;;;;;;5102189;27;20247;-80
2023/02/06 06:17:46;;;;;;;13.77;10.02;;;-0.80;1.00;;;;;;5113670;27;20239;-78
2023/02/06 06:20:16;;;;;;;17.90;9.70;;;-0.80;1.00;;;;;;5121458;28;20294;-78
2023/02/06 06:22:47;;;;;;;15.75;9.88;;;-0.80;1.00;;;;;;5122236;28;20283;-81
2023/02/06 06:25:17;;;;;;;13.93;10.25;;;-0.70;1.00;;;;;;5107705;28;20359;-81
2023/02/06 06:27:47;;;;;;;15.00;9.60;;;-0.60;1.00;;;;;;5079603;28;20241;-79
2023/02/06 06:30:21;;;;;;;18.30;10.68;;;-0.50;1.00;;;;;;5116712;28;20244;-80
2023/02/06 06:32:50;;;;;;;17.20;12.15;;;-0.50;1.00;;;;;;5113978;27;20227;-82
2023/02/06 06:35:18;;;;;;;18.95;11.35;;;-0.40;1.00;;;;;;5113300;27;20285;-79
2023/02/06 06:37:45;;;;;;;16.25;11.70;;;-0.40;1.00;;;;;;5104283;27;20247;-80
2023/02/06 06:40:15;;;;;;;19.50;11.63;;;-0.50;1.00;;;;;;5108843;27;21125;-81
2023/02/06 06:42:43;;;;;;;16.42;10.93;;;-0.40;1.00;;;;;;5112447;27;20273;-80
2023/02/06 06:45:11;;;;;;;19.40;12.57;;;-0.40;1.00;;;;;;5101123;27;20236;-80
2023/02/06 06:47:38;;;;;;;25.90;17.30;;;-0.40;1.00;;;;;;5117077;28;20258;-80
2023/02/06 06:50:07;;;;;;;18.55;12.07;;;-0.40;1.00;;;;;;5095638;27;20243;-81
2023/02/06 06:52:36;;;;;;;19.45;11.68;;;-0.30;1.00;;;;;;5112540;27;20239;-81
2023/02/06 06:55:05;;;;;;;18.08;12.27;;;-0.20;1.00;;;;;;5113363;27;20302;-82
2023/02/06 06:57:32;;;;;;;20.13;12.63;;;-0.30;1.00;;;;;;5116547;27;20273;-82
2023/02/06 07:00:00;;;;;;;19.45;13.70;;;-0.30;1.00;;;;;;5103790;27;20239;-81
2023/02/06 07:02:27;;;;;;;19.85;11.05;;;-0.30;1.00;;;;;;5110862;27;20320;-80
2023/02/06 07:04:54;;;;;;;20.83;12.68;;;-0.30;1.00;;;;;;5115415;27;21125;-82
2023/02/06 07:07:23;;;;;;;16.65;11.75;;;-0.20;1.00;;;;;;5115923;27;20231;-84
2023/02/06 07:09:55;;;;;;;18.85;10.93;;;-0.20;1.00;;;;;;5111270;27;20231;-82
2023/02/06 07:12:26;;;;;;;15.32;11.00;;;-0.20;1.00;;;;;;5110905;27;20235;-83
2023/02/06 07:14:57;;;;;;;17.95;11.07;;;-0.10;1.00;;;;;;5047340;28;20271;-82
2023/02/06 07:17:24;;;;;;;17.27;10.73;;;-0.10;1.00;;;;;;5103609;27;20239;-81
2023/02/06 07:19:57;;;;;;;18.10;12.10;;;-0.10;1.00;;;;;;5093181;27;20345;-82
2023/02/06 07:22:29;;;;;;;17.30;11.63;;;-0.20;1.00;;;;;;5074835;27;20239;-82
2023/02/06 07:24:59;;;;;;;15.82;10.25;;;-0.20;1.00;;;;;;5068513;28;20236;-84
2023/02/06 07:27:26;;;;;;;17.90;12.65;;;-0.20;1.00;;;;;;5086974;27;20757;-83
2023/02/06 07:29:54;;;;;;;18.83;12.65;;;-0.10;1.00;;;;;;5114441;27;20239;-81
2023/02/06 07:32:26;;;;;;;18.15;12.68;;;-0.10;1.00;;;;;;5121789;27;20227;-84
2023/02/06 07:35:08;;;;;;;19.75;12.13;;;0.00;1.00;;;;;;5099532;28;20235;-85
2023/02/06 07:37:38;;;;;;;18.10;12.23;;;0.00;1.00;;;;;;5077220;27;20232;-82
2023/02/06 07:40:06;;;;;;;19.25;12.90;;;0.10;1.00;;;;;;5078743;27;20255;-83
2023/02/06 07:42:33;;;;;;;19.15;14.18;;;0.10;1.00;;;;;;5111144;27;20236;-81
2023/02/06 07:45:00;;;;;;;22.92;14.73;;;0.20;1.00;;;;;;5113951;27;20235;-81
2023/02/06 07:47:27;;;;;;;24.10;16.42;;;0.20;1.00;;;;;;5112981;27;20313;-80
2023/02/06 07:49:56;;;;;;;25.05;15.00;;;0.20;1.00;;;;;;5110885;28;20232;-84
2023/02/06 07:52:36;;;;;;;21.27;14.05;;;0.30;1.00;;;;;;5089542;27;20240;-82
2023/02/06 07:55:08;;;;;;;22.00;14.20;;;0.30;1.00;;;;;;5092413;27;20228;-84
2023/02/06 07:57:37;;;;;;;23.65;15.88;;;0.40;1.00;;;;;;5094265;27;20234;-84
2023/02/06 08:00:16;;;;;;;20.45;14.43;;;0.40;1.00;;;;;;5070676;28;20236;-82
2023/02/06 08:02:49;;;;;;;23.88;16.05;;;0.50;1.00;;;;;;5049254;28;20232;-82
2023/02/06 08:05:18;;;;;;;23.17;15.30;;;0.70;1.00;;;;;;5080714;27;20211;-83
2023/02/06 08:07:46;;;;;;;24.70;15.95;;;0.90;1.00;;;;;;5111524;27;20239;-85
2023/02/06 08:10:19;;;;;;;28.77;18.20;;;0.90;1.00;;;;;;5105945;27;20240;-83
2023/02/06 08:12:48;;;;;;;28.67;20.98;;;0.90;1.00;;;;;;5105900;27;20234;-84
2023/02/06 08:15:18;;;;;;;23.50;16.80;;;0.90;1.00;;;;;;5106855;27;20784;-81
2023/02/06 08:17:47;;;;;;;24.58;17.70;;;0.90;1.00;;;;;;5043091;28;20743;-84
2023/02/06 08:20:17;;;;;;;27.95;17.13;;;0.90;1.00;;;;;;5087747;27;20243;-82
2023/02/06 08:22:49;;;;;;;23.42;15.48;;;1.00;1.00;;;;;;5073942;27;20471;-81
2023/02/06 08:25:29;;;;;;;22.42;15.52;;;1.00;1.00;;;;;;5077221;28;20240;-85
2023/02/06 08:27:58;;;;;;;22.63;16.23;;;1.00;1.00;;;;;;5101781;27;20269;-86
2023/02/06 08:30:26;;;;;;;23.13;15.77;;;1.00;1.00;;;;;;5096198;27;20219;-82
2023/02/06 08:33:47;;;;;;;22.92;15.65;;;1.10;1.00;;;;;;5062547;28;20224;-87
2023/02/06 08:39:48;;;;;;;29.70;19.45;;;1.20;1.00;;;;;;4966057;28;20229;-85
2023/02/06 08:42:19;;;;;;;23.38;16.17;;;1.30;1.00;;;;;;5043754;28;20382;-82
2023/02/06 08:44:59;;;;;;;;;;;;;;;;;;;;;
2023/02/06 08:47:37;;;;;;;22.88;17.10;;;1.30;1.00;;;;;;5045739;28;41020;-85
2023/02/06 08:50:18;;;;;;;26.27;18.95;;;1.30;1.00;;;;;;5077075;27;20236;-86
2023/02/06 08:52:45;;;;;;;24.15;17.85;;;1.20;1.00;;;;;;5091505;27;20255;-81
2023/02/06 08:55:13;;;;;;;30.25;16.73;;;1.30;1.00;;;;;;5116093;27;20267;-84
2023/02/06 08:57:49;;;;;;;28.00;17.80;;;1.30;1.00;;;;;;5119940;27;20235;-87
2023/02/06 09:00:19;;;;;;;30.70;17.95;;;1.40;1.00;;;;;;5107822;27;20334;-87
2023/02/06 09:02:46;;;;;;;27.65;18.38;;;1.50;1.00;;;;;;5116916;27;20457;-86
2023/02/06 09:05:14;;;;;;;24.52;15.50;;;1.60;1.00;;;;;;5122696;27;20231;-82
2023/02/06 09:13:07;;;;;;;25.20;16.83;;;1.70;1.00;;;;;;3825973;26;20391;-86
2023/02/06 09:15:34;;;;;;;31.08;18.45;;;1.80;1.00;;;;;;5046115;28;20270;-85
2023/02/06 09:18:01;;;;;;;27.95;17.25;;;1.70;1.00;;;;;;5064801;28;20880;-86
2023/02/06 09:20:28;;;;;;;27.45;17.67;;;1.70;1.00;;;;;;5059685;28;20245;-83
2023/02/06 09:22:55;;;;;;;34.38;18.25;;;1.70;1.00;;;;;;5066621;28;20265;-83
2023/02/06 09:25:23;;;;;;;29.63;19.65;;;1.80;1.00;;;;;;5064640;28;20248;-85
2023/02/06 09:27:50;;;;;;;28.20;18.23;;;1.80;1.00;;;;;;5056268;28;20236;-86
2023/02/06 09:30:19;;;;;;;28.75;17.58;;;1.90;1.00;;;;;;5056185;28;20260;-80
2023/02/06 09:32:46;;;;;;;29.10;17.77;;;1.90;1.00;;;;;;5041288;28;21232;-82
2023/02/06 09:35:18;;;;;;;31.00;18.52;;;1.90;1.00;;;;;;5051885;28;20319;-81
2023/02/06 09:37:47;;;;;;;30.80;17.83;;;1.80;1.00;;;;;;5051550;28;20884;-80
2023/02/06 09:40:19;;;;;;;27.05;18.77;;;1.80;1.00;;;;;;5051949;28;21056;-80
2023/02/06 09:42:48;;;;;;;27.83;18.30;;;1.80;1.00;;;;;;5051898;28;20237;-80
2023/02/06 09:45:25;;;;;;;31.13;19.42;;;1.80;1.00;;;;;;5048407;28;20241;-80
2023/02/06 09:48:17;;;;;;;30.40;18.75;;;1.70;1.00;;;;;;5041270;28;20248;-79
2023/02/06 09:50:51;;;;;;;28.15;18.40;;;1.70;1.00;;;;;;5028128;28;20365;-82
2023/02/06 09:53:27;;;;;;;33.30;19.08;;;1.60;1.00;;;;;;5038552;28;20237;-81
2023/02/06 09:56:17;;;;;;;;;;;;;;;;;;;;;
2023/02/06 09:58:55;;;;;;;32.20;17.63;;;1.60;1.00;;;;;;5014269;28;39080;-81
2023/02/06 10:01:39;;;;;;;33.53;18.65;;;1.50;1.00;;;;;;5024536;28;20373;-81
2023/02/06 10:04:46;;;;;;;30.15;18.27;;;1.60;1.00;;;;;;5049948;28;20229;-82
2023/02/06 10:07:46;;;;;;;38.17;19.77;;;1.60;1.00;;;;;;5028612;28;20221;-84
2023/02/06 10:13:49;;;;;;;38.33;20.60;;;1.60;1.00;;;;;;5013673;28;20268;-84
2023/02/06 10:16:39;;;;;;;33.17;20.17;;;1.50;1.00;;;;;;5026908;28;20343;-82
2023/02/06 10:19:27;;;;;;;33.83;19.40;;;1.50;1.00;;;;;;5028105;28;20237;-83
2023/02/06 10:25:39;;;;;;;27.65;17.98;;;1.40;1.00;;;;;;5001385;28;20291;-82
2023/02/06 10:28:50;;;;;;;30.70;18.02;;;1.40;1.00;;;;;;5021363;28;20246;-80
2023/02/06 10:31:57;;;;;;;33.20;20.45;;;1.30;1.00;;;;;;5019878;28;20249;-82
2023/02/06 10:34:50;;;;;;;35.90;18.75;;;1.30;1.00;;;;;;5020960;28;21052;-82
2023/02/06 10:37:27;;;;;;;34.35;19.90;;;1.50;1.00;;;;;;5019823;28;20995;-83
2023/02/06 10:40:20;;;;;;;33.03;18.40;;;1.50;1.00;;;;;;5014435;28;20233;-83
2023/02/06 10:42:54;;;;;;;30.92;18.48;;;1.50;1.00;;;;;;5022643;28;20241;-80
2023/02/06 10:45:35;;;;;;;39.47;20.63;;;1.60;1.00;;;;;;5014785;28;20246;-83
2023/02/06 10:48:23;;;;;;;36.10;20.48;;;1.50;1.00;;;;;;5015655;28;20238;-82
2023/02/06 10:51:00;;;;;;;30.10;18.48;;;1.50;1.00;;;;;;4996524;28;20647;-83
2023/02/06 10:53:36;;;;;;;38.58;18.92;;;1.40;1.00;;;;;;5034490;28;21230;-81
2023/02/06 10:56:21;;;;;;;32.85;18.77;;;1.40;1.00;;;;;;5001569;28;20236;-80
2023/02/06 10:58:52;;;;;;;33.47;18.95;;;1.30;1.00;;;;;;5009308;28;20242;-82
2023/02/06 11:01:20;;;;;;;34.42;19.67;;;1.20;1.00;;;;;;5006593;28;20333;-82
2023/02/06 11:04:00;;;;;;;35.78;19.70;;;1.20;1.00;;;;;;5013067;28;20243;-81
2023/02/06 11:06:30;;;;;;;39.55;21.35;;;1.30;1.00;;;;;;5019026;28;20237;-84
2023/02/06 11:08:58;;;;;;;34.22;22.05;;;1.30;1.00;;;;;;5019097;28;20251;-82
2023/02/06 11:11:37;;;;;;;36.05;21.08;;;1.40;1.00;;;;;;5010770;28;20240;-83
2023/02/06 11:14:48;;;;;;;38.08;24.00;;;1.30;1.00;;;;;;5002670;28;21063;-83
2023/02/06 11:17:17;;;;;;;39.80;23.08;;;1.30;1.00;;;;;;5008904;28;20747;-83
2023/02/06 11:19:49;;;;;;;35.15;21.38;;;1.30;1.00;;;;;;5019403;28;20254;-83
2023/02/06 11:22:34;;;;;;;33.42;20.75;;;1.30;1.00;;;;;;5020889;28;20950;-81
2023/02/06 11:25:11;;;;;;;36.55;20.90;;;1.30;1.00;;;;;;5015165;28;21127;-81
2023/02/06 11:27:44;;;;;;;35.88;20.67;;;1.30;1.00;;;;;;5015159;28;20249;-83
2023/02/06 11:30:25;;;;;;;38.08;21.98;;;1.30;1.00;;;;;;5013534;28;20243;-81
2023/02/06 11:33:00;;;;;;;32.80;20.98;;;1.40;1.00;;;;;;5014002;28;20250;-83
2023/02/06 11:35:41;;;;;;;34.38;21.45;;;1.50;1.00;;;;;;5003364;28;21139;-80
2023/02/06 11:38:24;;;;;;;41.33;21.58;;;1.60;1.00;;;;;;5000714;28;20719;-82
2023/02/06 11:40:59;;;;;;;41.10;23.33;;;1.70;1.00;;;;;;5014128;28;20258;-83
2023/02/06 11:43:28;;;;;;;34.85;21.75;;;1.90;1.00;;;;;;5007776;28;20246;-85
2023/02/06 11:46:14;;;;;;;31.70;21.83;;;2.10;1.00;;;;;;5005498;28;20243;-81
2023/02/06 11:48:43;;;;;;;38.35;24.85;;;2.00;1.00;;;;;;5008730;28;20965;-79
2023/02/06 11:51:13;;;;;;;34.03;18.77;;;2.10;1.00;;;;;;5006942;28;20258;-80
2023/02/06 11:53:55;;;;;;;28.60;19.15;;;2.20;1.00;;;;;;5009656;28;20231;-82
2023/02/06 11:56:24;;;;;;;26.38;17.30;;;2.30;1.00;;;;;;5006849;28;20242;-81
2023/02/06 11:59:06;;;;;;;29.17;17.95;;;2.40;1.00;;;;;;5022835;28;20346;-83
2023/02/06 12:01:44;;;;;;;26.52;18.80;;;2.50;1.00;;;;;;5012373;28;20243;-83
2023/02/06 12:04:24;;;;;;;24.83;17.05;;;2.60;1.00;;;;;;5010519;28;20253;-81
2023/02/06 12:07:01;;;;;;;25.58;15.00;;;2.60;1.00;;;;;;5014657;28;20321;-79
2023/02/06 12:09:28;;;;;;;24.75;17.48;;;2.60;1.00;;;;;;5006982;28;20271;-79
2023/02/06 12:12:08;;;;;;;34.08;23.90;;;2.70;1.00;;;;;;5024220;28;20996;-81
2023/02/06 12:14:43;;;;;;;24.40;16.58;;;2.70;1.00;;;;;;5050084;28;20328;-80
2023/02/06 12:17:22;;;;;;;25.38;16.20;;;2.80;1.00;;;;;;5052032;28;20247;-80
2023/02/06 12:19:55;;;;;;;21.73;15.35;;;2.80;1.00;;;;;;5051483;28;20264;-80
2023/02/06 12:22:26;;;;;;;24.50;16.25;;;2.60;1.00;;;;;;5051689;28;20248;-81
2023/02/06 12:24:56;;;;;;;22.85;14.15;;;2.50;1.00;;;;;;5050279;28;21223;-81
2023/02/06 12:27:28;;;;;;;23.15;16.27;;;2.40;1.00;;;;;;5049755;28;20316;-79
2023/02/06 12:30:01;;;;;;;25.93;17.87;;;2.30;1.00;;;;;;5049842;28;21041;-81
2023/02/06 12:32:32;;;;;;;25.00;14.68;;;2.30;1.00;;;;;;5048281;28;20479;-80
2023/02/06 12:35:12;;;;;;;23.00;16.65;;;2.30;1.00;;;;;;5050806;28;20245;-82
2023/02/06 12:37:44;;;;;;;23.95;15.98;;;2.50;1.00;;;;;;5040952;28;20324;-80
2023/02/06 12:40:18;;;;;;;24.70;17.50;;;2.50;1.00;;;;;;5044394;28;20340;-79
2023/02/06 12:42:55;;;;;;;25.63;15.77;;;2.50;1.00;;;;;;5049487;28;20244;-79
2023/02/06 12:45:42;;;;;;;22.42;15.18;;;2.40;1.00;;;;;;5051284;28;20240;-79
2023/02/06 12:48:22;;;;;;;26.17;18.38;;;2.30;1.00;;;;;;5052657;28;21040;-78
2023/02/06 12:51:02;;;;;;;22.42;14.25;;;2.30;1.00;;;;;;5053111;28;20252;-79
2023/02/06 12:54:02;;;;;;;22.25;14.23;;;2.30;1.00;;;;;;5057866;28;20237;-80
2023/02/06 12:56:45;;;;;;;19.55;13.15;;;2.50;1.00;;;;;;5057041;28;20249;-77
2023/02/06 12:59:36;;;;;;;24.40;16.00;;;2.80;1.00;;;;;;5055231;28;20948;-80
2023/02/06 13:02:18;;;;;;;20.38;13.98;;;2.90;1.00;;;;;;5050734;28;20348;-78
2023/02/06 13:04:53;;;;;;;21.25;13.85;;;2.90;1.00;;;;;;5054470;28;20237;-78
2023/02/06 13:07:25;;;;;;;22.70;14.10;;;3.00;1.00;;;;;;5057647;28;20260;-80
2023/02/06 13:10:05;;;;;;;19.55;13.07;;;3.10;1.00;;;;;;5055119;28;20225;-80
2023/02/06 13:12:36;;;;;;;20.05;14.30;;;3.10;1.00;;;;;;5055131;28;20240;-80
2023/02/06 13:15:12;;;;;;;16.75;11.68;;;3.30;1.00;;;;;;5049178;28;20248;-80
2023/02/06 13:17:44;;;;;;;17.98;13.57;;;3.40;1.00;;;;;;5052685;28;20248;-78
2023/02/06 13:20:14;;;;;;;21.90;13.52;;;3.40;1.00;;;;;;5056845;28;21099;-77
2023/02/06 13:22:48;;;;;;;19.05;13.32;;;3.50;1.00;;;;;;5051138;28;20233;-82
2023/02/06 13:25:51;;;;;;;22.08;13.23;;;3.50;1.00;;;;;;5052905;28;20246;-83
2023/02/06 13:29:00;;;;;;;21.40;14.77;;;3.50;1.00;;;;;;5049069;28;20627;-82
2023/02/06 13:31:30;;;;;;;22.25;14.35;;;3.50;1.00;;;;;;5043661;28;20237;-84
2023/02/06 13:34:05;;;;;;;19.33;12.65;;;3.50;1.00;;;;;;5050828;28;20229;-85
2023/02/06 13:36:52;;;;;;;22.42;13.35;;;3.60;1.00;;;;;;5049179;28;20229;-83
2023/02/06 13:39:32;;;;;;;18.75;12.90;;;3.70;1.00;;;;;;5043600;28;20311;-83
2023/02/06 13:42:23;;;;;;;17.13;12.77;;;3.70;1.00;;;;;;5043517;28;20858;-82
2023/02/06 13:44:53;;;;;;;18.52;13.13;;;3.70;1.00;;;;;;5046306;28;20229;-83
2023/02/06 13:47:52;;;;;;;18.27;11.77;;;3.70;1.00;;;;;;5044613;28;20887;-81
2023/02/06 13:50:38;;;;;;;17.73;11.70;;;3.60;1.00;;;;;;5043994;28;20966;-81